sensor_id;sensor_type;location;lat;lon;timestamp;P1;durP1;ratioP1;P2;durP2;ratioP2
6354;SDS011;3210;48.708;9.030;2023-06-10T00:00:02;7.50;;;4.40;;
6354;SDS011;3210;48.708;9.030;2023-06-10T00:02:30;6.00;;;3.97;;
6354;SDS011;3210;48.708;9.030;2023-06-10T00:04:57;5.70;;;4.40;;
6354;SDS011;3210;48.708;9.030;2023-06-10T00:07:25;6.00;;;5.30;;
6354;SDS011;3210;48.708;9.030;2023-06-10T00:09:52;6.23;;;4.97;;
6354;SDS011;3210;48.708;9.030;2023-06-10T00:12:20;5.77;;;4.73;;
6354;SDS011;3210;48.708;9.030;2023-06-10T00:14:47;7.27;;;4.90;;
6354;SDS011;3210;48.708;9.030;2023-06-10T00:17:15;6.03;;;4.90;;
6354;SDS011;3210;48.708;9.030;2023-06-10T00:19:42;5.60;;;5.10;;
6354;SDS011;3210;48.708;9.030;2023-06-10T00:22:08;6.10;;;4.70;;
6354;SDS011;3210;48.708;9.030;2023-06-10T00:24:38;7.73;;;5.00;;
6354;SDS011;3210;48.708;9.030;2023-06-10T00:27:05;5.67;;;4.80;;
6354;SDS011;3210;48.708;9.030;2023-06-10T00:29:33;6.07;;;5.30;;
6354;SDS011;3210;48.708;9.030;2023-06-10T00:31:59;9.23;;;5.60;;
6354;SDS011;3210;48.708;9.030;2023-06-10T00:34:26;6.03;;;5.40;;
6354;SDS011;3210;48.708;9.030;2023-06-10T00:36:53;7.07;;;4.50;;
6354;SDS011;3210;48.708;9.030;2023-06-10T00:39:20;5.50;;;5.00;;
6354;SDS011;3210;48.708;9.030;2023-06-10T00:41:48;7.93;;;5.60;;
6354;SDS011;3210;48.708;9.030;2023-06-10T00:44:15;6.60;;;5.50;;
6354;SDS011;3210;48.708;9.030;2023-06-10T00:46:42;5.73;;;5.13;;
6354;SDS011;3210;48.708;9.030;2023-06-10T00:49:09;5.80;;;5.23;;
6354;SDS011;3210;48.708;9.030;2023-06-10T00:51:35;13.03;;;5.80;;
6354;SDS011;3210;48.708;9.030;2023-06-10T00:54:03;5.70;;;4.70;;
6354;SDS011;3210;48.708;9.030;2023-06-10T00:56:30;7.23;;;5.00;;
6354;SDS011;3210;48.708;9.030;2023-06-10T00:59:01;7.50;;;5.27;;
6354;SDS011;3210;48.708;9.030;2023-06-10T01:01:28;6.63;;;4.87;;
6354;SDS011;3210;48.708;9.030;2023-06-10T01:03:55;7.13;;;5.50;;
6354;SDS011;3210;48.708;9.030;2023-06-10T01:06:24;5.77;;;5.17;;
6354;SDS011;3210;48.708;9.030;2023-06-10T01:09:02;7.20;;;5.20;;
6354;SDS011;3210;48.708;9.030;2023-06-10T01:11:34;7.10;;;5.40;;
6354;SDS011;3210;48.708;9.030;2023-06-10T01:14:05;7.30;;;5.70;;
6354;SDS011;3210;48.708;9.030;2023-06-10T01:16:33;11.30;;;6.00;;
6354;SDS011;3210;48.708;9.030;2023-06-10T01:19:02;13.00;;;5.17;;
6354;SDS011;3210;48.708;9.030;2023-06-10T01:21:30;7.10;;;6.13;;
6354;SDS011;3210;48.708;9.030;2023-06-10T01:23:57;7.90;;;5.40;;
6354;SDS011;3210;48.708;9.030;2023-06-10T01:26:24;5.57;;;4.90;;
6354;SDS011;3210;48.708;9.030;2023-06-10T01:28:57;16.37;;;5.60;;
6354;SDS011;3210;48.708;9.030;2023-06-10T01:31:28;6.90;;;5.53;;
6354;SDS011;3210;48.708;9.030;2023-06-10T01:34:02;5.93;;;5.43;;
6354;SDS011;3210;48.708;9.030;2023-06-10T01:36:33;6.10;;;5.23;;
6354;SDS011;3210;48.708;9.030;2023-06-10T01:39:01;6.20;;;5.60;;
6354;SDS011;3210;48.708;9.030;2023-06-10T01:41:31;4.90;;;4.50;;
6354;SDS011;3210;48.708;9.030;2023-06-10T01:43:58;8.80;;;6.03;;
6354;SDS011;3210;48.708;9.030;2023-06-10T01:46:25;6.60;;;4.80;;
6354;SDS011;3210;48.708;9.030;2023-06-10T01:48:52;6.30;;;5.67;;
6354;SDS011;3210;48.708;9.030;2023-06-10T01:51:19;7.20;;;5.87;;
6354;SDS011;3210;48.708;9.030;2023-06-10T01:53:47;8.83;;;6.03;;
6354;SDS011;3210;48.708;9.030;2023-06-10T01:56:14;6.23;;;5.63;;
6354;SDS011;3210;48.708;9.030;2023-06-10T01:58:43;7.00;;;5.43;;
6354;SDS011;3210;48.708;9.030;2023-06-10T02:01:10;14.23;;;5.80;;
6354;SDS011;3210;48.708;9.030;2023-06-10T02:03:36;8.30;;;5.77;;
6354;SDS011;3210;48.708;9.030;2023-06-10T02:06:03;10.10;;;6.37;;
6354;SDS011;3210;48.708;9.030;2023-06-10T02:08:30;5.80;;;5.27;;
6354;SDS011;3210;48.708;9.030;2023-06-10T02:10:58;6.87;;;5.53;;
6354;SDS011;3210;48.708;9.030;2023-06-10T02:13:25;7.50;;;5.17;;
6354;SDS011;3210;48.708;9.030;2023-06-10T02:15:52;6.43;;;5.20;;
6354;SDS011;3210;48.708;9.030;2023-06-10T02:18:19;9.93;;;5.73;;
6354;SDS011;3210;48.708;9.030;2023-06-10T02:20:47;8.27;;;4.90;;
6354;SDS011;3210;48.708;9.030;2023-06-10T02:23:13;7.03;;;5.63;;
6354;SDS011;3210;48.708;9.030;2023-06-10T02:25:40;12.80;;;5.40;;
6354;SDS011;3210;48.708;9.030;2023-06-10T02:28:08;6.50;;;5.30;;
6354;SDS011;3210;48.708;9.030;2023-06-10T02:30:38;5.93;;;5.37;;
6354;SDS011;3210;48.708;9.030;2023-06-10T02:33:06;5.57;;;5.07;;
6354;SDS011;3210;48.708;9.030;2023-06-10T02:35:35;7.40;;;5.67;;
6354;SDS011;3210;48.708;9.030;2023-06-10T02:38:02;8.80;;;6.03;;
6354;SDS011;3210;48.708;9.030;2023-06-10T02:40:29;6.73;;;6.00;;
6354;SDS011;3210;48.708;9.030;2023-06-10T02:42:55;5.83;;;5.33;;
6354;SDS011;3210;48.708;9.030;2023-06-10T02:45:23;5.63;;;5.13;;
6354;SDS011;3210;48.708;9.030;2023-06-10T02:47:50;5.53;;;4.90;;
6354;SDS011;3210;48.708;9.030;2023-06-10T02:50:17;5.40;;;4.90;;
6354;SDS011;3210;48.708;9.030;2023-06-10T02:52:44;5.23;;;4.73;;
6354;SDS011;3210;48.708;9.030;2023-06-10T02:55:11;8.93;;;5.67;;
6354;SDS011;3210;48.708;9.030;2023-06-10T02:57:38;5.87;;;5.27;;
6354;SDS011;3210;48.708;9.030;2023-06-10T03:00:06;6.80;;;5.47;;
6354;SDS011;3210;48.708;9.030;2023-06-10T03:02:37;6.10;;;5.03;;
6354;SDS011;3210;48.708;9.030;2023-06-10T03:05:05;5.97;;;5.27;;
6354;SDS011;3210;48.708;9.030;2023-06-10T03:07:34;5.70;;;5.20;;
6354;SDS011;3210;48.708;9.030;2023-06-10T03:10:02;11.97;;;4.90;;
6354;SDS011;3210;48.708;9.030;2023-06-10T03:12:29;5.63;;;5.10;;
6354;SDS011;3210;48.708;9.030;2023-06-10T03:14:56;9.50;;;5.27;;
6354;SDS011;3210;48.708;9.030;2023-06-10T03:17:23;5.50;;;5.00;;
6354;SDS011;3210;48.708;9.030;2023-06-10T03:19:51;5.83;;;5.23;;
6354;SDS011;3210;48.708;9.030;2023-06-10T03:22:18;6.20;;;5.60;;
6354;SDS011;3210;48.708;9.030;2023-06-10T03:24:45;6.37;;;5.60;;
6354;SDS011;3210;48.708;9.030;2023-06-10T03:27:15;6.50;;;5.07;;
6354;SDS011;3210;48.708;9.030;2023-06-10T03:29:42;5.33;;;4.87;;
6354;SDS011;3210;48.708;9.030;2023-06-10T03:32:09;6.07;;;5.47;;
6354;SDS011;3210;48.708;9.030;2023-06-10T03:34:36;6.17;;;4.90;;
6354;SDS011;3210;48.708;9.030;2023-06-10T03:37:05;5.20;;;4.70;;
6354;SDS011;3210;48.708;9.030;2023-06-10T03:39:32;5.40;;;4.40;;
6354;SDS011;3210;48.708;9.030;2023-06-10T03:41:59;5.87;;;4.63;;
6354;SDS011;3210;48.708;9.030;2023-06-10T03:44:25;7.47;;;5.20;;
6354;SDS011;3210;48.708;9.030;2023-06-10T03:46:52;5.80;;;4.87;;
6354;SDS011;3210;48.708;9.030;2023-06-10T03:49:20;6.40;;;5.47;;
6354;SDS011;3210;48.708;9.030;2023-06-10T03:51:51;8.83;;;5.53;;
6354;SDS011;3210;48.708;9.030;2023-06-10T03:54:20;6.37;;;5.77;;
6354;SDS011;3210;48.708;9.030;2023-06-10T03:56:46;8.23;;;5.47;;
6354;SDS011;3210;48.708;9.030;2023-06-10T03:59:13;5.20;;;4.70;;
6354;SDS011;3210;48.708;9.030;2023-06-10T04:01:40;10.77;;;4.90;;
6354;SDS011;3210;48.708;9.030;2023-06-10T04:04:08;6.47;;;5.40;;
6354;SDS011;3210;48.708;9.030;2023-06-10T04:06:35;4.90;;;4.50;;
6354;SDS011;3210;48.708;9.030;2023-06-10T04:09:03;5.70;;;5.20;;
6354;SDS011;3210;48.708;9.030;2023-06-10T04:11:31;7.33;;;5.53;;
6354;SDS011;3210;48.708;9.030;2023-06-10T04:13:58;6.23;;;5.33;;
6354;SDS011;3210;48.708;9.030;2023-06-10T04:16:25;5.57;;;5.00;;
6354;SDS011;3210;48.708;9.030;2023-06-10T04:18:51;6.20;;;5.23;;
6354;SDS011;3210;48.708;9.030;2023-06-10T04:21:18;6.00;;;5.47;;
6354;SDS011;3210;48.708;9.030;2023-06-10T04:23:45;5.73;;;5.13;;
6354;SDS011;3210;48.708;9.030;2023-06-10T04:26:12;5.93;;;5.33;;
6354;SDS011;3210;48.708;9.030;2023-06-10T04:28:42;5.10;;;4.60;;
6354;SDS011;3210;48.708;9.030;2023-06-10T04:31:09;5.43;;;4.87;;
6354;SDS011;3210;48.708;9.030;2023-06-10T04:33:36;6.93;;;5.83;;
6354;SDS011;3210;48.708;9.030;2023-06-10T04:36:04;8.30;;;6.30;;
6354;SDS011;3210;48.708;9.030;2023-06-10T04:38:31;5.93;;;5.27;;
6354;SDS011;3210;48.708;9.030;2023-06-10T04:40:58;5.67;;;5.07;;
6354;SDS011;3210;48.708;9.030;2023-06-10T04:43:25;7.90;;;5.00;;
6354;SDS011;3210;48.708;9.030;2023-06-10T04:45:54;5.63;;;5.13;;
6354;SDS011;3210;48.708;9.030;2023-06-10T04:48:21;7.07;;;4.80;;
6354;SDS011;3210;48.708;9.030;2023-06-10T04:50:49;5.53;;;5.00;;
6354;SDS011;3210;48.708;9.030;2023-06-10T04:53:16;7.63;;;5.70;;
6354;SDS011;3210;48.708;9.030;2023-06-10T04:55:43;6.53;;;5.20;;
6354;SDS011;3210;48.708;9.030;2023-06-10T04:58:10;8.43;;;5.47;;
6354;SDS011;3210;48.708;9.030;2023-06-10T05:00:37;6.00;;;5.40;;
6354;SDS011;3210;48.708;9.030;2023-06-10T05:03:05;5.30;;;4.60;;
6354;SDS011;3210;48.708;9.030;2023-06-10T05:05:32;7.00;;;5.60;;
6354;SDS011;3210;48.708;9.030;2023-06-10T05:07:58;6.00;;;4.50;;
6354;SDS011;3210;48.708;9.030;2023-06-10T05:10:25;5.70;;;5.17;;
6354;SDS011;3210;48.708;9.030;2023-06-10T05:12:52;5.73;;;5.13;;
6354;SDS011;3210;48.708;9.030;2023-06-10T05:15:19;5.80;;;5.30;;
6354;SDS011;3210;48.708;9.030;2023-06-10T05:17:46;6.33;;;4.73;;
6354;SDS011;3210;48.708;9.030;2023-06-10T05:20:14;4.90;;;4.40;;
6354;SDS011;3210;48.708;9.030;2023-06-10T05:22:41;4.67;;;4.27;;
6354;SDS011;3210;48.708;9.030;2023-06-10T05:25:08;5.07;;;4.57;;
6354;SDS011;3210;48.708;9.030;2023-06-10T05:27:35;6.90;;;5.40;;
6354;SDS011;3210;48.708;9.030;2023-06-10T05:30:03;7.80;;;6.30;;
6354;SDS011;3210;48.708;9.030;2023-06-10T05:32:32;5.43;;;5.00;;
6354;SDS011;3210;48.708;9.030;2023-06-10T05:34:59;5.47;;;4.90;;
6354;SDS011;3210;48.708;9.030;2023-06-10T05:37:27;5.10;;;4.60;;
6354;SDS011;3210;48.708;9.030;2023-06-10T05:39:54;6.23;;;4.77;;
6354;SDS011;3210;48.708;9.030;2023-06-10T05:42:21;6.00;;;5.40;;
6354;SDS011;3210;48.708;9.030;2023-06-10T05:44:48;5.80;;;5.20;;
6354;SDS011;3210;48.708;9.030;2023-06-10T05:47:15;5.43;;;4.90;;
6354;SDS011;3210;48.708;9.030;2023-06-10T05:49:42;4.77;;;4.07;;
6354;SDS011;3210;48.708;9.030;2023-06-10T05:52:10;6.07;;;4.47;;
6354;SDS011;3210;48.708;9.030;2023-06-10T05:54:38;5.23;;;4.70;;
6354;SDS011;3210;48.708;9.030;2023-06-10T05:57:05;4.97;;;4.47;;
6354;SDS011;3210;48.708;9.030;2023-06-10T05:59:32;5.07;;;4.57;;
6354;SDS011;3210;48.708;9.030;2023-06-10T06:01:59;5.20;;;4.67;;
6354;SDS011;3210;48.708;9.030;2023-06-10T06:04:26;4.87;;;4.47;;
6354;SDS011;3210;48.708;9.030;2023-06-10T06:06:52;5.67;;;5.17;;
6354;SDS011;3210;48.708;9.030;2023-06-10T06:09:19;4.70;;;4.10;;
6354;SDS011;3210;48.708;9.030;2023-06-10T06:11:47;5.10;;;4.60;;
6354;SDS011;3210;48.708;9.030;2023-06-10T06:14:14;5.23;;;4.73;;
6354;SDS011;3210;48.708;9.030;2023-06-10T06:16:41;12.33;;;4.57;;
6354;SDS011;3210;48.708;9.030;2023-06-10T06:19:08;4.83;;;4.37;;
6354;SDS011;3210;48.708;9.030;2023-06-10T06:21:36;7.20;;;5.33;;
6354;SDS011;3210;48.708;9.030;2023-06-10T06:24:03;4.83;;;4.40;;
6354;SDS011;3210;48.708;9.030;2023-06-10T06:26:30;4.23;;;3.93;;
6354;SDS011;3210;48.708;9.030;2023-06-10T06:28:58;4.90;;;4.37;;
6354;SDS011;3210;48.708;9.030;2023-06-10T06:31:25;4.83;;;4.43;;
6354;SDS011;3210;48.708;9.030;2023-06-10T06:33:51;5.43;;;4.97;;
6354;SDS011;3210;48.708;9.030;2023-06-10T06:36:18;5.40;;;4.07;;
6354;SDS011;3210;48.708;9.030;2023-06-10T06:38:45;5.00;;;4.60;;
6354;SDS011;3210;48.708;9.030;2023-06-10T06:41:12;4.93;;;4.43;;
6354;SDS011;3210;48.708;9.030;2023-06-10T06:43:39;4.63;;;4.30;;
6354;SDS011;3210;48.708;9.030;2023-06-10T06:46:08;5.47;;;4.97;;
6354;SDS011;3210;48.708;9.030;2023-06-10T06:48:35;5.70;;;5.03;;
6354;SDS011;3210;48.708;9.030;2023-06-10T06:51:02;5.60;;;5.07;;
6354;SDS011;3210;48.708;9.030;2023-06-10T06:53:29;4.80;;;4.40;;
6354;SDS011;3210;48.708;9.030;2023-06-10T06:55:56;4.77;;;4.30;;
6354;SDS011;3210;48.708;9.030;2023-06-10T06:58:22;7.20;;;4.60;;
6354;SDS011;3210;48.708;9.030;2023-06-10T07:00:49;5.20;;;4.70;;
6354;SDS011;3210;48.708;9.030;2023-06-10T07:03:17;5.53;;;5.03;;
6354;SDS011;3210;48.708;9.030;2023-06-10T07:05:44;7.30;;;4.23;;
6354;SDS011;3210;48.708;9.030;2023-06-10T07:08:11;7.50;;;4.20;;
6354;SDS011;3210;48.708;9.030;2023-06-10T07:10:38;4.90;;;4.23;;
6354;SDS011;3210;48.708;9.030;2023-06-10T07:13:04;4.77;;;4.37;;
6354;SDS011;3210;48.708;9.030;2023-06-10T07:15:31;6.73;;;4.80;;
6354;SDS011;3210;48.708;9.030;2023-06-10T07:17:58;4.90;;;4.40;;
6354;SDS011;3210;48.708;9.030;2023-06-10T07:20:26;9.93;;;4.43;;
6354;SDS011;3210;48.708;9.030;2023-06-10T07:22:53;5.53;;;5.03;;
6354;SDS011;3210;48.708;9.030;2023-06-10T07:25:20;5.37;;;4.50;;
6354;SDS011;3210;48.708;9.030;2023-06-10T07:27:47;6.30;;;4.43;;
6354;SDS011;3210;48.708;9.030;2023-06-10T07:30:14;3.53;;;3.23;;
6354;SDS011;3210;48.708;9.030;2023-06-10T07:32:40;4.33;;;3.90;;
6354;SDS011;3210;48.708;9.030;2023-06-10T07:35:08;7.37;;;4.37;;
6354;SDS011;3210;48.708;9.030;2023-06-10T07:37:37;4.53;;;4.17;;
6354;SDS011;3210;48.708;9.030;2023-06-10T07:40:05;7.10;;;4.87;;
6354;SDS011;3210;48.708;9.030;2023-06-10T07:42:34;4.83;;;4.47;;
6354;SDS011;3210;48.708;9.030;2023-06-10T07:45:01;4.40;;;4.10;;
6354;SDS011;3210;48.708;9.030;2023-06-10T07:47:28;4.10;;;3.70;;
6354;SDS011;3210;48.708;9.030;2023-06-10T07:49:55;4.20;;;3.70;;
6354;SDS011;3210;48.708;9.030;2023-06-10T07:52:22;4.50;;;4.10;;
6354;SDS011;3210;48.708;9.030;2023-06-10T07:54:50;6.27;;;4.07;;
6354;SDS011;3210;48.708;9.030;2023-06-10T07:57:18;5.90;;;4.43;;
6354;SDS011;3210;48.708;9.030;2023-06-10T07:59:45;3.70;;;3.40;;
6354;SDS011;3210;48.708;9.030;2023-06-10T08:02:12;4.70;;;4.30;;
6354;SDS011;3210;48.708;9.030;2023-06-10T08:04:39;4.40;;;4.00;;
6354;SDS011;3210;48.708;9.030;2023-06-10T08:07:05;3.87;;;3.57;;
6354;SDS011;3210;48.708;9.030;2023-06-10T08:09:32;3.90;;;3.60;;
6354;SDS011;3210;48.708;9.030;2023-06-10T08:12:01;4.13;;;3.73;;
6354;SDS011;3210;48.708;9.030;2023-06-10T08:14:28;4.30;;;3.90;;
6354;SDS011;3210;48.708;9.030;2023-06-10T08:16:55;4.13;;;3.70;;
6354;SDS011;3210;48.708;9.030;2023-06-10T08:19:22;6.23;;;3.67;;
6354;SDS011;3210;48.708;9.030;2023-06-10T08:21:48;4.53;;;4.13;;
6354;SDS011;3210;48.708;9.030;2023-06-10T08:24:15;4.70;;;4.30;;
6354;SDS011;3210;48.708;9.030;2023-06-10T08:26:43;5.90;;;4.00;;
6354;SDS011;3210;48.708;9.030;2023-06-10T08:29:12;4.33;;;3.93;;
6354;SDS011;3210;48.708;9.030;2023-06-10T08:31:40;4.13;;;3.70;;
6354;SDS011;3210;48.708;9.030;2023-06-10T08:34:08;4.10;;;3.80;;
6354;SDS011;3210;48.708;9.030;2023-06-10T08:36:35;4.77;;;4.30;;
6354;SDS011;3210;48.708;9.030;2023-06-10T08:39:02;4.60;;;4.20;;
6354;SDS011;3210;48.708;9.030;2023-06-10T08:41:30;5.20;;;4.17;;
6354;SDS011;3210;48.708;9.030;2023-06-10T08:44:02;4.60;;;4.20;;
6354;SDS011;3210;48.708;9.030;2023-06-10T08:46:35;4.00;;;3.70;;
6354;SDS011;3210;48.708;9.030;2023-06-10T08:49:03;4.83;;;4.30;;
6354;SDS011;3210;48.708;9.030;2023-06-10T08:51:32;4.60;;;4.03;;
6354;SDS011;3210;48.708;9.030;2023-06-10T08:54:02;4.20;;;3.80;;
6354;SDS011;3210;48.708;9.030;2023-06-10T08:56:31;6.50;;;3.90;;
6354;SDS011;3210;48.708;9.030;2023-06-10T08:59:01;4.87;;;4.37;;
6354;SDS011;3210;48.708;9.030;2023-06-10T09:01:28;4.73;;;4.30;;
6354;SDS011;3210;48.708;9.030;2023-06-10T09:03:57;3.97;;;3.67;;
6354;SDS011;3210;48.708;9.030;2023-06-10T09:06:25;4.53;;;4.13;;
6354;SDS011;3210;48.708;9.030;2023-06-10T09:08:53;11.77;;;4.00;;
6354;SDS011;3210;48.708;9.030;2023-06-10T09:11:20;3.93;;;3.60;;
6354;SDS011;3210;48.708;9.030;2023-06-10T09:13:47;3.50;;;2.80;;
6354;SDS011;3210;48.708;9.030;2023-06-10T09:16:13;6.00;;;4.50;;
6354;SDS011;3210;48.708;9.030;2023-06-10T09:18:41;6.03;;;4.43;;
6354;SDS011;3210;48.708;9.030;2023-06-10T09:21:09;5.00;;;4.37;;
6354;SDS011;3210;48.708;9.030;2023-06-10T09:23:36;4.90;;;4.40;;
6354;SDS011;3210;48.708;9.030;2023-06-10T09:26:07;5.20;;;3.90;;
6354;SDS011;3210;48.708;9.030;2023-06-10T09:28:35;5.60;;;3.40;;
6354;SDS011;3210;48.708;9.030;2023-06-10T09:31:02;4.32;;;3.92;;
6354;SDS011;3210;48.708;9.030;2023-06-10T09:33:30;3.85;;;3.55;;
6354;SDS011;3210;48.708;9.030;2023-06-10T09:35:57;4.30;;;3.90;;
6354;SDS011;3210;48.708;9.030;2023-06-10T09:38:30;5.10;;;3.77;;
6354;SDS011;3210;48.708;9.030;2023-06-10T09:40:58;4.75;;;4.35;;
6354;SDS011;3210;48.708;9.030;2023-06-10T09:43:37;6.83;;;3.87;;
6354;SDS011;3210;48.708;9.030;2023-06-10T09:46:06;4.40;;;4.00;;
6354;SDS011;3210;48.708;9.030;2023-06-10T09:48:40;5.67;;;5.17;;
6354;SDS011;3210;48.708;9.030;2023-06-10T09:51:08;3.80;;;3.40;;
6354;SDS011;3210;48.708;9.030;2023-06-10T09:53:37;4.40;;;4.10;;
6354;SDS011;3210;48.708;9.030;2023-06-10T09:56:04;4.37;;;3.60;;
6354;SDS011;3210;48.708;9.030;2023-06-10T09:58:35;4.27;;;3.90;;
6354;SDS011;3210;48.708;9.030;2023-06-10T10:01:05;4.83;;;4.43;;
6354;SDS011;3210;48.708;9.030;2023-06-10T10:03:37;4.93;;;4.40;;
6354;SDS011;3210;48.708;9.030;2023-06-10T10:06:10;6.37;;;3.90;;
6354;SDS011;3210;48.708;9.030;2023-06-10T10:08:38;3.80;;;3.50;;
6354;SDS011;3210;48.708;9.030;2023-06-10T10:11:05;5.05;;;4.18;;
6354;SDS011;3210;48.708;9.030;2023-06-10T10:13:33;6.93;;;4.20;;
6354;SDS011;3210;48.708;9.030;2023-06-10T10:16:01;4.23;;;3.93;;
6354;SDS011;3210;48.708;9.030;2023-06-10T10:18:32;4.13;;;3.73;;
6354;SDS011;3210;48.708;9.030;2023-06-10T10:21:03;4.97;;;4.47;;
6354;SDS011;3210;48.708;9.030;2023-06-10T10:23:37;4.30;;;3.90;;
6354;SDS011;3210;48.708;9.030;2023-06-10T10:26:10;3.80;;;3.50;;
6354;SDS011;3210;48.708;9.030;2023-06-10T10:28:40;7.00;;;3.73;;
6354;SDS011;3210;48.708;9.030;2023-06-10T10:31:10;4.43;;;3.40;;
6354;SDS011;3210;48.708;9.030;2023-06-10T10:33:42;2.90;;;2.70;;
6354;SDS011;3210;48.708;9.030;2023-06-10T10:36:16;4.37;;;3.13;;
6354;SDS011;3210;48.708;9.030;2023-06-10T10:38:44;4.18;;;3.03;;
6354;SDS011;3210;48.708;9.030;2023-06-10T10:41:13;3.78;;;2.95;;
6354;SDS011;3210;48.708;9.030;2023-06-10T10:43:40;3.35;;;3.13;;
6354;SDS011;3210;48.708;9.030;2023-06-10T10:46:11;3.50;;;3.20;;
6354;SDS011;3210;48.708;9.030;2023-06-10T10:48:39;4.28;;;3.88;;
6354;SDS011;3210;48.708;9.030;2023-06-10T10:51:07;4.45;;;3.00;;
6354;SDS011;3210;48.708;9.030;2023-06-10T10:53:34;5.32;;;3.58;;
6354;SDS011;3210;48.708;9.030;2023-06-10T10:56:06;6.95;;;3.55;;
6354;SDS011;3210;48.708;9.030;2023-06-10T10:58:33;4.50;;;4.15;;
6354;SDS011;3210;48.708;9.030;2023-06-10T11:01:09;4.13;;;3.78;;
6354;SDS011;3210;48.708;9.030;2023-06-10T11:03:42;3.88;;;3.38;;
6354;SDS011;3210;48.708;9.030;2023-06-10T11:06:11;4.10;;;3.70;;
6354;SDS011;3210;48.708;9.030;2023-06-10T11:08:45;4.00;;;3.58;;
6354;SDS011;3210;48.708;9.030;2023-06-10T11:11:18;4.13;;;3.83;;
6354;SDS011;3210;48.708;9.030;2023-06-10T11:16:38;6.10;;;3.65;;
6354;SDS011;3210;48.708;9.030;2023-06-10T11:19:06;4.60;;;4.20;;
6354;SDS011;3210;48.708;9.030;2023-06-10T11:21:36;4.10;;;3.70;;
6354;SDS011;3210;48.708;9.030;2023-06-10T11:24:23;4.05;;;3.55;;
6354;SDS011;3210;48.708;9.030;2023-06-10T11:26:52;8.83;;;3.57;;
6354;SDS011;3210;48.708;9.030;2023-06-10T11:29:19;4.00;;;3.63;;
6354;SDS011;3210;48.708;9.030;2023-06-10T11:31:48;4.37;;;3.03;;
6354;SDS011;3210;48.708;9.030;2023-06-10T11:34:21;3.90;;;3.60;;
6354;SDS011;3210;48.708;9.030;2023-06-10T11:36:52;4.63;;;3.10;;
6354;SDS011;3210;48.708;9.030;2023-06-10T11:39:20;6.43;;;3.53;;
6354;SDS011;3210;48.708;9.030;2023-06-10T11:41:52;5.03;;;3.77;;
6354;SDS011;3210;48.708;9.030;2023-06-10T11:44:20;3.77;;;3.00;;
6354;SDS011;3210;48.708;9.030;2023-06-10T11:46:50;4.35;;;3.40;;
6354;SDS011;3210;48.708;9.030;2023-06-10T11:49:35;3.60;;;3.33;;
6354;SDS011;3210;48.708;9.030;2023-06-10T11:52:04;10.40;;;3.57;;
6354;SDS011;3210;48.708;9.030;2023-06-10T11:54:31;3.97;;;3.63;;
6354;SDS011;3210;48.708;9.030;2023-06-10T11:56:59;10.93;;;2.77;;
6354;SDS011;3210;48.708;9.030;2023-06-10T11:59:28;3.58;;;3.28;;
6354;SDS011;3210;48.708;9.030;2023-06-10T12:01:55;4.57;;;3.55;;
6354;SDS011;3210;48.708;9.030;2023-06-10T12:04:22;4.03;;;3.72;;
6354;SDS011;3210;48.708;9.030;2023-06-10T12:06:51;3.65;;;3.42;;
6354;SDS011;3210;48.708;9.030;2023-06-10T12:09:19;11.00;;;3.58;;
6354;SDS011;3210;48.708;9.030;2023-06-10T12:11:48;8.15;;;3.47;;
6354;SDS011;3210;48.708;9.030;2023-06-10T12:14:17;6.10;;;3.63;;
6354;SDS011;3210;48.708;9.030;2023-06-10T12:17:18;8.70;;;4.05;;
6354;SDS011;3210;48.708;9.030;2023-06-10T12:19:47;4.78;;;4.20;;
6354;SDS011;3210;48.708;9.030;2023-06-10T12:22:14;4.60;;;3.85;;
6354;SDS011;3210;48.708;9.030;2023-06-10T12:24:44;4.18;;;3.78;;
6354;SDS011;3210;48.708;9.030;2023-06-10T12:27:11;6.95;;;4.38;;
6354;SDS011;3210;48.708;9.030;2023-06-10T12:29:39;4.35;;;3.55;;
6354;SDS011;3210;48.708;9.030;2023-06-10T12:32:18;3.97;;;3.65;;
6354;SDS011;3210;48.708;9.030;2023-06-10T12:34:47;3.90;;;3.60;;
6354;SDS011;3210;48.708;9.030;2023-06-10T12:37:15;6.47;;;3.67;;
6354;SDS011;3210;48.708;9.030;2023-06-10T12:39:42;3.97;;;3.33;;
6354;SDS011;3210;48.708;9.030;2023-06-10T12:42:18;9.07;;;3.50;;
6354;SDS011;3210;48.708;9.030;2023-06-10T12:44:53;6.22;;;3.97;;
6354;SDS011;3210;48.708;9.030;2023-06-10T12:47:20;4.20;;;3.65;;
6354;SDS011;3210;48.708;9.030;2023-06-10T12:49:56;3.60;;;3.40;;
6354;SDS011;3210;48.708;9.030;2023-06-10T12:52:23;4.40;;;3.40;;
6354;SDS011;3210;48.708;9.030;2023-06-10T12:54:50;5.38;;;3.20;;
6354;SDS011;3210;48.708;9.030;2023-06-10T12:57:17;4.00;;;3.47;;
6354;SDS011;3210;48.708;9.030;2023-06-10T12:59:44;3.03;;;2.83;;
6354;SDS011;3210;48.708;9.030;2023-06-10T13:02:18;4.13;;;3.70;;
6354;SDS011;3210;48.708;9.030;2023-06-10T13:04:45;3.80;;;3.55;;
6354;SDS011;3210;48.708;9.030;2023-06-10T13:07:12;4.50;;;4.20;;
6354;SDS011;3210;48.708;9.030;2023-06-10T13:09:39;5.60;;;3.58;;
6354;SDS011;3210;48.708;9.030;2023-06-10T13:12:06;4.40;;;3.78;;
6354;SDS011;3210;48.708;9.030;2023-06-10T13:14:34;7.75;;;3.58;;
6354;SDS011;3210;48.708;9.030;2023-06-10T13:17:02;9.27;;;3.35;;
6354;SDS011;3210;48.708;9.030;2023-06-10T13:19:32;5.50;;;3.53;;
6354;SDS011;3210;48.708;9.030;2023-06-10T13:21:59;4.60;;;3.35;;
6354;SDS011;3210;48.708;9.030;2023-06-10T13:24:26;3.47;;;3.17;;
6354;SDS011;3210;48.708;9.030;2023-06-10T13:26:52;3.65;;;3.25;;
6354;SDS011;3210;48.708;9.030;2023-06-10T13:29:20;4.50;;;3.60;;
6354;SDS011;3210;48.708;9.030;2023-06-10T13:31:46;3.80;;;3.50;;
6354;SDS011;3210;48.708;9.030;2023-06-10T13:34:13;3.57;;;3.27;;
6354;SDS011;3210;48.708;9.030;2023-06-10T13:36:41;7.63;;;3.47;;
6354;SDS011;3210;48.708;9.030;2023-06-10T13:39:08;4.28;;;3.50;;
6354;SDS011;3210;48.708;9.030;2023-06-10T13:41:35;3.10;;;2.90;;
6354;SDS011;3210;48.708;9.030;2023-06-10T13:44:02;3.45;;;3.15;;
6354;SDS011;3210;48.708;9.030;2023-06-10T13:46:29;3.47;;;3.20;;
6354;SDS011;3210;48.708;9.030;2023-06-10T13:48:55;3.83;;;3.38;;
6354;SDS011;3210;48.708;9.030;2023-06-10T13:51:22;3.78;;;3.47;;
6354;SDS011;3210;48.708;9.030;2023-06-10T13:53:50;4.20;;;3.28;;
6354;SDS011;3210;48.708;9.030;2023-06-10T13:56:17;3.10;;;2.80;;
6354;SDS011;3210;48.708;9.030;2023-06-10T13:58:44;3.80;;;3.35;;
6354;SDS011;3210;48.708;9.030;2023-06-10T14:01:11;7.10;;;3.95;;
6354;SDS011;3210;48.708;9.030;2023-06-10T14:03:38;3.65;;;3.35;;
6354;SDS011;3210;48.708;9.030;2023-06-10T14:06:05;5.65;;;3.10;;
6354;SDS011;3210;48.708;9.030;2023-06-10T14:08:32;3.78;;;3.47;;
6354;SDS011;3210;48.708;9.030;2023-06-10T14:11:01;4.50;;;3.50;;
6354;SDS011;3210;48.708;9.030;2023-06-10T14:13:28;7.18;;;3.95;;
6354;SDS011;3210;48.708;9.030;2023-06-10T14:15:55;4.30;;;3.72;;
6354;SDS011;3210;48.708;9.030;2023-06-10T14:18:22;3.73;;;3.43;;
6354;SDS011;3210;48.708;9.030;2023-06-10T14:20:49;5.00;;;3.13;;
6354;SDS011;3210;48.708;9.030;2023-06-10T14:23:16;3.67;;;3.17;;
6354;SDS011;3210;48.708;9.030;2023-06-10T14:25:43;3.50;;;3.20;;
6354;SDS011;3210;48.708;9.030;2023-06-10T14:28:11;3.90;;;3.50;;
6354;SDS011;3210;48.708;9.030;2023-06-10T14:30:37;4.20;;;3.30;;
6354;SDS011;3210;48.708;9.030;2023-06-10T14:33:04;3.70;;;3.40;;
6354;SDS011;3210;48.708;9.030;2023-06-10T14:35:31;3.42;;;3.03;;
6354;SDS011;3210;48.708;9.030;2023-06-10T14:37:58;3.22;;;3.00;;
6354;SDS011;3210;48.708;9.030;2023-06-10T14:40:25;3.33;;;3.03;;
6354;SDS011;3210;48.708;9.030;2023-06-10T14:42:53;4.57;;;3.45;;
6354;SDS011;3210;48.708;9.030;2023-06-10T14:45:21;2.90;;;2.70;;
6354;SDS011;3210;48.708;9.030;2023-06-10T14:47:50;3.17;;;2.95;;
6354;SDS011;3210;48.708;9.030;2023-06-10T14:50:17;3.35;;;3.10;;
6354;SDS011;3210;48.708;9.030;2023-06-10T14:52:43;4.65;;;3.20;;
6354;SDS011;3210;48.708;9.030;2023-06-10T14:55:10;3.55;;;3.28;;
6354;SDS011;3210;48.708;9.030;2023-06-10T14:57:37;4.57;;;3.03;;
6354;SDS011;3210;48.708;9.030;2023-06-10T15:00:04;4.15;;;2.78;;
6354;SDS011;3210;48.708;9.030;2023-06-10T15:02:33;3.33;;;3.03;;
6354;SDS011;3210;48.708;9.030;2023-06-10T15:05:00;2.95;;;2.75;;
6354;SDS011;3210;48.708;9.030;2023-06-10T15:07:27;3.25;;;2.67;;
6354;SDS011;3210;48.708;9.030;2023-06-10T15:09:53;3.00;;;2.80;;
6354;SDS011;3210;48.708;9.030;2023-06-10T15:12:20;8.63;;;3.38;;
6354;SDS011;3210;48.708;9.030;2023-06-10T15:14:47;3.45;;;3.15;;
6354;SDS011;3210;48.708;9.030;2023-06-10T15:17:13;7.28;;;3.42;;
6354;SDS011;3210;48.708;9.030;2023-06-10T15:19:42;3.95;;;3.40;;
6354;SDS011;3210;48.708;9.030;2023-06-10T15:22:08;3.78;;;3.00;;